Terminal Aerodrome Forecast
Issued by NWS

Home | Current Version | Previous Version | Text Only | Print | Product List | Glossary On
Versions: 1 2 3 4 5 6 7 8 9 10 11 12 13 14 15 16
830
FTUS43 KMQT 061135
TAFSAW
TAF
KSAW 061135Z 0612/0712 24007KT P6SM BKN025
     FM061700 25007KT P6SM OVC030
     FM061900 24007KT P6SM OVC035
     FM070300 19009KT P6SM -SN OVC022
     FM070600 19009KT 3SM -SN OVC018
     FM071000 20009KT 4SM -SN OVC015=

USA.gov is the U.S. government's official web portal to all federal, state and local government web resources and services.